Time;durP1;ratioP1;P1;durP2;ratioP2;P2;SDS_P1;SDS_P2;PMS_P1;PMS_P2;Temp;Humidity;BMP_temperature;BMP_pressure;BME280_temperature;BME280_humidity;BME280_pressure;Samples;Min_cycle;Max_cycle;Signal;HPM_P1;HPM_P2
2023/06/11 00:01:48;;;;;;;15.90;8.45;;;;;;;21.67;100.00;101348.41;5227475;28;20601;-70
2023/06/11 00:04:24;;;;;;;14.30;8.27;;;;;;;21.62;100.00;101344.69;5227793;28;20394;-69
2023/06/11 00:06:56;;;;;;;12.00;8.10;;;;;;;21.53;100.00;101348.78;5227853;28;20070;-70
2023/06/11 00:09:28;;;;;;;13.60;8.38;;;;;;;21.47;100.00;101347.81;5227581;28;20600;-69
2023/06/11 00:11:58;;;;;;;12.60;8.43;;;;;;;21.41;100.00;101346.81;5228552;28;20028;-69
2023/06/11 00:14:29;;;;;;;14.32;8.52;;;;;;;21.37;100.00;101345.59;5227657;28;20034;-69
2023/06/11 00:16:59;;;;;;;14.68;9.05;;;;;;;21.31;100.00;101346.50;5228655;28;20025;-69
2023/06/11 00:19:30;;;;;;;13.40;8.27;;;;;;;21.28;100.00;101341.44;5228553;28;20115;-70
2023/06/11 00:22:03;;;;;;;14.48;9.13;;;;;;;21.22;100.00;101342.34;5230237;28;20103;-70
2023/06/11 00:24:33;;;;;;;13.40;8.30;;;;;;;21.14;100.00;101342.66;5246047;28;20541;-70
2023/06/11 00:27:05;;;;;;;16.98;8.80;;;;;;;21.09;100.00;101342.50;5245816;28;20027;-69
2023/06/11 00:29:36;;;;;;;11.38;8.98;;;;;;;21.04;100.00;101348.63;5229831;28;20036;-70
2023/06/11 00:32:07;;;;;;;12.70;8.77;;;;;;;20.98;100.00;101341.31;5226428;28;20505;-70
2023/06/11 00:34:37;;;;;;;11.88;8.75;;;;;;;20.92;100.00;101340.31;5228864;28;20036;-70
2023/06/11 00:37:08;;;;;;;16.30;9.43;;;;;;;20.87;100.00;101342.03;5226931;28;20055;-70
2023/06/11 00:39:39;;;;;;;11.90;8.40;;;;;;;20.82;100.00;101331.78;5228725;28;20021;-70
2023/06/11 00:42:10;;;;;;;17.63;9.70;;;;;;;20.71;100.00;101327.06;5226639;28;20025;-70
2023/06/11 00:44:40;;;;;;;18.17;9.35;;;;;;;20.63;100.00;101330.91;5238586;28;20475;-69
2023/06/11 00:47:11;;;;;;;18.60;9.10;;;;;;;20.59;100.00;101328.84;5227544;28;20099;-70
2023/06/11 00:49:42;;;;;;;16.58;9.90;;;;;;;20.54;100.00;101336.84;5238954;28;20398;-70
2023/06/11 00:52:14;;;;;;;14.75;8.98;;;;;;;20.51;100.00;101337.28;5227550;28;20029;-70
2023/06/11 00:54:45;;;;;;;11.93;8.80;;;;;;;20.52;100.00;101338.94;5225812;28;20025;-69
2023/06/11 00:57:17;;;;;;;16.38;9.18;;;;;;;20.50;100.00;101339.16;5225641;28;20108;-70
2023/06/11 00:59:50;;;;;;;13.27;9.20;;;;;;;20.48;100.00;101332.25;5226392;28;20029;-70
2023/06/11 01:02:44;;;;;;;11.75;8.80;;;;;;;20.46;100.00;101328.91;5229693;28;20659;-70
2023/06/11 01:05:17;;;;;;;15.23;9.30;;;;;;;20.39;100.00;101335.22;5227783;28;20029;-70
2023/06/11 01:10:59;;;;;;;20.35;9.10;;;;;;;20.25;100.00;101341.81;5226492;28;20509;-70
2023/06/11 01:13:41;;;;;;;15.05;10.10;;;;;;;20.15;100.00;101330.56;5242025;28;20024;-69
2023/06/11 01:16:46;;;;;;;16.73;10.25;;;;;;;20.04;100.00;101340.25;5226841;28;20060;-70
2023/06/11 01:19:33;;;;;;;14.43;9.55;;;;;;;19.92;100.00;101337.34;5237796;28;20032;-69
2023/06/11 01:22:30;;;;;;;18.98;11.43;;;;;;;19.79;100.00;101345.59;5234202;28;20040;-70
2023/06/11 01:25:38;;;;;;;16.02;9.82;;;;;;;19.75;100.00;101338.06;5232603;28;20029;-69
2023/06/11 01:28:12;;;;;;;13.57;10.80;;;;;;;19.69;100.00;101333.47;5240820;28;20033;-69
2023/06/11 01:30:48;;;;;;;16.77;10.75;;;;;;;19.57;100.00;101335.97;5239159;28;20074;-70
2023/06/11 01:33:19;;;;;;;22.50;11.20;;;;;;;19.42;100.00;101338.94;5233322;28;20036;-69
2023/06/11 01:35:52;;;;;;;14.95;10.60;;;;;;;19.28;100.00;101340.88;5243814;28;20556;-69
2023/06/11 01:38:22;;;;;;;14.52;10.93;;;;;;;19.19;100.00;101336.69;5235620;28;20021;-69
2023/06/11 01:40:55;;;;;;;13.15;10.13;;;;;;;19.09;100.00;101337.13;5241424;28;20531;-69
2023/06/11 01:43:28;;;;;;;14.70;11.05;;;;;;;19.01;100.00;101341.94;5245453;28;20086;-70
2023/06/11 01:45:58;;;;;;;17.08;10.70;;;;;;;18.96;100.00;101347.16;5244716;28;20028;-69
2023/06/11 01:48:29;;;;;;;14.98;10.63;;;;;;;18.86;100.00;101340.25;5232711;28;20351;-69
2023/06/11 01:51:00;;;;;;;16.88;11.57;;;;;;;18.80;100.00;101338.38;5225764;28;20020;-69
2023/06/11 01:53:31;;;;;;;19.30;11.23;;;;;;;18.74;100.00;101349.25;5225926;28;20029;-69
2023/06/11 01:56:02;;;;;;;16.52;10.70;;;;;;;18.64;100.00;101352.34;5224067;28;20478;-69
2023/06/11 01:58:33;;;;;;;18.27;11.57;;;;;;;18.55;100.00;101346.28;5226507;28;20116;-69
2023/06/11 02:01:04;;;;;;;18.50;11.80;;;;;;;18.46;100.00;101342.06;5226329;28;20104;-69
2023/06/11 02:03:35;;;;;;;22.10;12.80;;;;;;;18.38;100.00;101343.13;5228564;28;20103;-69
2023/06/11 02:06:05;;;;;;;17.00;11.27;;;;;;;18.37;100.00;101344.16;5236226;28;20096;-69
2023/06/11 02:08:36;;;;;;;20.63;11.77;;;;;;;18.28;100.00;101350.81;5231948;28;20089;-69
2023/06/11 02:11:07;;;;;;;17.20;11.75;;;;;;;18.17;100.00;101354.09;5228822;28;20444;-69
2023/06/11 02:13:39;;;;;;;17.08;12.27;;;;;;;18.16;100.00;101354.31;5236230;28;20450;-69
2023/06/11 02:16:10;;;;;;;18.67;12.07;;;;;;;18.11;100.00;101353.03;5211810;28;20024;-70
2023/06/11 02:18:40;;;;;;;15.18;11.60;;;;;;;18.08;100.00;101355.34;5236522;28;20021;-69
2023/06/11 02:21:13;;;;;;;21.70;12.57;;;;;;;18.07;100.00;101349.09;5231317;28;20387;-70
2023/06/11 02:23:43;;;;;;;19.38;12.77;;;;;;;18.03;100.00;101360.56;5243984;28;20024;-69
2023/06/11 02:26:14;;;;;;;15.40;12.18;;;;;;;17.92;100.00;101356.50;5243694;28;20641;-69
2023/06/11 02:28:45;;;;;;;19.13;12.32;;;;;;;17.85;100.00;101364.63;5244285;28;20385;-69
2023/06/11 02:31:15;;;;;;;16.88;12.15;;;;;;;17.81;100.00;101363.34;5230782;28;20102;-70
2023/06/11 02:33:45;;;;;;;20.70;12.80;;;;;;;17.84;100.00;101367.56;5244676;28;20199;-69
2023/06/11 02:36:16;;;;;;;24.83;12.88;;;;;;;17.80;100.00;101358.97;5243673;28;20064;-69
2023/06/11 02:38:46;;;;;;;20.13;13.40;;;;;;;17.74;100.00;101362.50;5244239;28;20540;-69
2023/06/11 02:41:17;;;;;;;15.93;12.23;;;;;;;17.69;100.00;101355.97;5244106;28;20045;-69
2023/06/11 02:43:47;;;;;;;15.52;11.25;;;;;;;17.66;100.00;101356.38;5244449;28;20020;-69
2023/06/11 02:46:18;;;;;;;17.63;11.90;;;;;;;17.66;100.00;101356.38;5243763;28;20100;-69
2023/06/11 02:48:48;;;;;;;20.27;13.05;;;;;;;17.67;100.00;101360.75;5242762;28;20048;-69
2023/06/11 02:51:19;;;;;;;22.25;12.25;;;;;;;17.67;100.00;101352.59;5224673;28;20027;-69
2023/06/11 02:53:49;;;;;;;17.45;11.65;;;;;;;17.65;100.00;101357.41;5225935;28;20035;-69
2023/06/11 02:56:20;;;;;;;22.95;12.75;;;;;;;17.63;100.00;101359.50;5223895;28;20048;-69
2023/06/11 02:58:50;;;;;;;17.38;11.43;;;;;;;17.58;100.00;101351.94;5225552;28;20094;-69
2023/06/11 03:01:21;;;;;;;19.80;11.95;;;;;;;17.52;100.00;101356.31;5224575;28;20029;-69
2023/06/11 03:03:51;;;;;;;16.08;12.50;;;;;;;17.48;100.00;101355.03;5225309;28;20051;-69
2023/06/11 03:06:22;;;;;;;17.30;12.43;;;;;;;17.46;100.00;101353.53;5223739;28;20100;-69
2023/06/11 03:08:53;;;;;;;20.40;13.50;;;;;;;17.44;100.00;101347.47;5225433;28;20051;-69
2023/06/11 03:11:23;;;;;;;20.00;12.52;;;;;;;17.41;100.00;101353.28;5224468;28;20064;-69
2023/06/11 03:13:54;;;;;;;18.52;12.57;;;;;;;17.38;100.00;101351.84;5226639;28;20021;-69
2023/06/11 03:16:24;;;;;;;19.60;13.02;;;;;;;17.31;100.00;101354.47;5225263;28;20029;-69
2023/06/11 03:18:55;;;;;;;20.20;13.15;;;;;;;17.29;100.00;101350.31;5226745;28;20029;-69
2023/06/11 03:21:26;;;;;;;18.30;12.88;;;;;;;17.25;100.00;101349.03;5228510;28;20029;-69
2023/06/11 03:23:57;;;;;;;20.42;12.77;;;;;;;17.22;100.00;101346.69;5242480;28;20021;-69
2023/06/11 03:26:27;;;;;;;17.75;13.10;;;;;;;17.21;100.00;101351.28;5243254;28;20021;-69
2023/06/11 03:28:59;;;;;;;23.50;13.38;;;;;;;17.20;100.00;101349.59;5232123;28;20032;-69
2023/06/11 03:31:30;;;;;;;17.60;12.68;;;;;;;17.13;100.00;101348.72;5226642;28;20390;-69
2023/06/11 03:34:01;;;;;;;23.88;14.18;;;;;;;17.06;100.00;101350.53;5225292;28;20023;-69
2023/06/11 03:36:31;;;;;;;20.00;13.77;;;;;;;17.01;100.00;101347.59;5224294;28;20035;-69
2023/06/11 03:39:02;;;;;;;22.73;14.23;;;;;;;16.93;100.00;101353.16;5226332;28;20029;-70
2023/06/11 03:41:33;;;;;;;24.88;15.82;;;;;;;16.89;100.00;101360.00;5227296;28;20028;-69
2023/06/11 03:44:03;;;;;;;26.20;16.35;;;;;;;16.89;100.00;101360.84;5229118;28;20028;-69
2023/06/11 03:46:34;;;;;;;19.90;14.95;;;;;;;16.87;100.00;101354.78;5227615;28;20105;-69
2023/06/11 03:49:04;;;;;;;20.58;13.90;;;;;;;16.89;100.00;101350.00;5227998;28;20032;-69
2023/06/11 03:51:35;;;;;;;23.10;13.95;;;;;;;16.90;100.00;101356.25;5226677;28;20025;-69
2023/06/11 03:54:06;;;;;;;22.90;14.30;;;;;;;16.93;100.00;101358.59;5230271;28;20020;-69
2023/06/11 03:56:37;;;;;;;19.63;13.57;;;;;;;16.94;100.00;101363.78;5226109;28;20032;-69
2023/06/11 03:59:07;;;;;;;19.95;14.13;;;;;;;16.96;100.00;101360.88;5239946;28;20024;-69
2023/06/11 04:01:38;;;;;;;18.52;14.30;;;;;;;16.94;100.00;101362.97;5218767;28;20031;-70
2023/06/11 04:04:08;;;;;;;20.90;14.70;;;;;;;16.95;100.00;101372.75;5230220;28;20111;-69
2023/06/11 04:06:40;;;;;;;19.23;13.48;;;;;;;16.97;100.00;101363.41;5208906;28;20029;-69
2023/06/11 04:09:10;;;;;;;20.92;14.40;;;;;;;17.04;100.00;101360.75;5228454;28;20486;-69
2023/06/11 04:11:41;;;;;;;19.13;14.10;;;;;;;17.08;100.00;101353.91;5229247;28;20028;-69
2023/06/11 04:14:11;;;;;;;18.70;12.98;;;;;;;17.11;100.00;101358.91;5227258;28;20112;-69
2023/06/11 04:16:41;;;;;;;16.67;13.02;;;;;;;17.13;100.00;101353.31;5229283;28;20397;-69
2023/06/11 04:19:12;;;;;;;20.60;14.10;;;;;;;17.14;100.00;101361.25;5229845;28;20029;-69
2023/06/11 04:21:43;;;;;;;24.45;14.90;;;;;;;17.17;100.00;101369.00;5235468;28;20440;-69
2023/06/11 04:24:13;;;;;;;20.85;14.75;;;;;;;17.22;100.00;101371.97;5232833;28;20502;-69
2023/06/11 04:26:44;;;;;;;19.23;14.35;;;;;;;17.28;100.00;101367.63;5245791;28;20365;-69
2023/06/11 04:29:15;;;;;;;23.10;15.05;;;;;;;17.40;100.00;101367.91;5246712;28;20099;-69
2023/06/11 04:31:47;;;;;;;20.67;14.70;;;;;;;17.51;100.00;101370.03;5238157;28;20032;-69
2023/06/11 04:34:17;;;;;;;19.48;14.50;;;;;;;17.65;100.00;101371.81;5223797;28;20497;-69
2023/06/11 04:36:48;;;;;;;21.58;15.45;;;;;;;17.81;100.00;101366.06;5233604;28;20037;-69
2023/06/11 04:39:19;;;;;;;23.73;14.65;;;;;;;17.94;100.00;101370.75;5246820;28;20024;-69
2023/06/11 04:41:51;;;;;;;20.95;15.10;;;;;;;18.05;100.00;101377.47;5246503;28;20481;-69
2023/06/11 04:44:22;;;;;;;21.77;15.63;;;;;;;18.18;100.00;101380.25;5233205;28;20025;-69
2023/06/11 04:46:57;;;;;;;20.02;15.05;;;;;;;18.25;100.00;101383.81;5245744;28;20025;-70
2023/06/11 04:49:27;;;;;;;23.45;15.85;;;;;;;18.30;100.00;101381.31;5215653;28;20031;-69
2023/06/11 04:51:58;;;;;;;20.95;14.88;;;;;;;18.33;100.00;101380.91;5246220;28;20119;-69
2023/06/11 04:54:28;;;;;;;18.95;14.43;;;;;;;18.38;100.00;101386.56;5245987;28;20020;-69
2023/06/11 04:56:59;;;;;;;19.65;14.38;;;;;;;18.46;100.00;101373.84;5245408;28;20017;-70
2023/06/11 04:59:30;;;;;;;31.02;14.77;;;;;;;18.57;100.00;101384.09;5236146;28;20075;-69
2023/06/11 05:02:01;;;;;;;26.02;14.27;;;;;;;18.68;100.00;101377.25;5229042;28;20478;-69
2023/06/11 05:04:31;;;;;;;18.35;13.75;;;;;;;18.75;100.00;101378.94;5227644;28;20032;-69
2023/06/11 05:07:03;;;;;;;23.13;14.18;;;;;;;18.84;100.00;101387.75;5228054;28;20128;-69
2023/06/11 05:09:33;;;;;;;25.17;14.43;;;;;;;18.92;100.00;101384.78;5236251;28;20033;-69
2023/06/11 05:12:05;;;;;;;20.58;13.13;;;;;;;19.01;100.00;101382.72;5229185;28;20390;-69
2023/06/11 05:14:35;;;;;;;23.98;14.07;;;;;;;19.12;100.00;101385.63;5228266;28;20478;-70
2023/06/11 05:17:06;;;;;;;25.40;13.45;;;;;;;19.22;100.00;101385.22;5227232;28;20075;-70
2023/06/11 05:19:36;;;;;;;18.13;13.27;;;;;;;19.33;100.00;101387.31;5229284;28;20029;-70
2023/06/11 05:22:07;;;;;;;20.58;13.80;;;;;;;19.46;100.00;101391.06;5230219;28;20075;-71
2023/06/11 05:24:41;;;;;;;24.73;13.60;;;;;;;19.58;100.00;101400.28;5232048;28;20077;-70
2023/06/11 05:27:12;;;;;;;19.27;13.77;;;;;;;19.71;100.00;101400.25;5217485;28;20024;-70
2023/06/11 05:29:42;;;;;;;19.33;13.18;;;;;;;19.83;100.00;101390.41;5223636;28;20029;-70
2023/06/11 05:32:14;;;;;;;17.85;13.55;;;;;;;19.94;100.00;101399.78;5236655;28;20355;-70
2023/06/11 05:34:45;;;;;;;18.25;13.10;;;;;;;20.03;100.00;101398.50;5245506;28;20021;-70
2023/06/11 05:37:16;;;;;;;18.00;13.73;;;;;;;20.16;100.00;101403.03;5240987;28;20093;-70
2023/06/11 05:39:46;;;;;;;17.30;13.23;;;;;;;20.29;100.00;101396.72;5238390;28;20081;-70
2023/06/11 05:42:17;;;;;;;18.08;12.45;;;;;;;20.40;100.00;101396.84;5225089;28;20091;-70
2023/06/11 05:44:47;;;;;;;17.42;12.80;;;;;;;20.52;100.00;101391.56;5245485;28;20066;-70
2023/06/11 05:47:17;;;;;;;19.85;13.30;;;;;;;20.64;100.00;101395.28;5244518;28;20016;-71
2023/06/11 05:49:48;;;;;;;19.52;13.07;;;;;;;20.79;100.00;101405.88;5245314;28;20025;-70
2023/06/11 05:52:18;;;;;;;18.55;12.18;;;;;;;20.92;100.00;101399.47;5231732;28;20027;-70
2023/06/11 05:54:49;;;;;;;17.25;13.15;;;;;;;21.09;100.00;101408.78;5244870;28;20024;-70
2023/06/11 05:57:21;;;;;;;20.25;12.07;;;;;;;21.39;100.00;101408.16;5244346;28;20023;-71
2023/06/11 05:59:52;;;;;;;18.15;11.95;;;;;;;21.84;100.00;101400.56;5245375;28;20073;-71
2023/06/11 06:02:22;;;;;;;17.23;12.05;;;;;;;22.53;100.00;101405.78;5245098;28;20020;-71
2023/06/11 06:04:53;;;;;;;18.15;11.38;;;;;;;23.49;100.00;101405.53;5244938;28;20036;-71
2023/06/11 06:07:23;;;;;;;19.17;11.77;;;;;;;24.30;100.00;101411.13;5243979;28;20024;-71
2023/06/11 06:09:54;;;;;;;16.83;10.82;;;;;;;25.10;100.00;101417.56;5244834;28;20033;-71
2023/06/11 06:12:24;;;;;;;13.18;10.23;;;;;;;25.75;100.00;101408.69;5244826;28;20029;-72
2023/06/11 06:14:55;;;;;;;12.07;10.50;;;;;;;26.19;100.00;101420.56;5244867;28;20036;-71
2023/06/11 06:17:25;;;;;;;15.43;10.02;;;;;;;26.69;100.00;101413.16;5234349;28;20108;-71
2023/06/11 06:19:56;;;;;;;13.75;10.30;;;;;;;27.03;100.00;101420.09;5240405;28;20070;-71
2023/06/11 06:22:26;;;;;;;13.70;9.85;;;;;;;27.28;100.00;101419.50;5229450;28;20032;-71
2023/06/11 06:24:57;;;;;;;12.25;9.80;;;;;;;27.50;100.00;101413.84;5242690;28;20032;-71
2023/06/11 06:27:27;;;;;;;14.85;9.68;;;;;;;27.73;100.00;101414.59;5243978;28;20028;-71
2023/06/11 06:29:58;;;;;;;15.00;10.32;;;;;;;28.05;100.00;101409.75;5244544;28;20516;-71
2023/06/11 06:32:29;;;;;;;13.52;10.18;;;;;;;28.33;100.00;101415.94;5244302;28;20474;-71
2023/06/11 06:34:59;;;;;;;15.68;10.45;;;;;;;28.67;100.00;101423.75;5244517;28;20027;-71
2023/06/11 06:37:30;;;;;;;16.98;10.10;;;;;;;28.81;100.00;101425.72;5243467;28;20027;-71
2023/06/11 06:40:00;;;;;;;14.13;9.45;;;;;;;28.87;100.00;101421.88;5244676;28;20031;-71
2023/06/11 06:42:31;;;;;;;11.43;9.20;;;;;;;28.97;100.00;101429.38;5243808;28;20500;-71
2023/06/11 06:45:02;;;;;;;12.40;9.75;;;;;;;29.32;100.00;101428.53;5240075;28;20040;-71
2023/06/11 06:47:32;;;;;;;12.40;8.13;;;;;;;29.47;100.00;101424.94;5242821;28;20103;-71
2023/06/11 06:50:03;;;;;;;10.50;8.55;;;;;;;29.50;100.00;101423.53;5238078;28;20112;-72
2023/06/11 06:52:33;;;;;;;12.77;8.98;;;;;;;29.69;100.00;101416.34;5240098;28;20486;-71
2023/06/11 06:55:04;;;;;;;12.80;8.73;;;;;;;29.81;100.00;101419.59;5241691;28;20496;-71
2023/06/11 06:57:35;;;;;;;10.02;8.77;;;;;;;30.05;100.00;101414.28;5230030;28;20020;-73
2023/06/11 07:00:07;;;;;;;15.00;8.88;;;;;;;30.23;100.00;101418.38;5243061;28;20031;-71
2023/06/11 07:02:38;;;;;;;15.13;9.65;;;;;;;30.08;100.00;101413.72;5237976;28;20024;-71
2023/06/11 07:05:10;;;;;;;9.68;8.70;;;;;;;30.20;100.00;101412.56;5228460;28;20055;-72
2023/06/11 07:07:40;;;;;;;14.25;9.45;;;;;;;30.00;100.00;101407.94;5242449;28;20028;-71
2023/06/11 07:10:11;;;;;;;11.48;8.43;;;;;;;30.33;100.00;101407.25;5243312;28;20029;-72
2023/06/11 07:12:41;;;;;;;10.38;8.88;;;;;;;30.60;100.00;101412.34;5243408;28;20031;-72
2023/06/11 07:15:12;;;;;;;11.60;8.48;;;;;;;30.84;100.00;101419.97;5243281;28;20036;-73
2023/06/11 07:17:42;;;;;;;12.98;8.55;;;;;;;31.07;100.00;101415.63;5242700;28;20024;-72
2023/06/11 07:20:13;;;;;;;10.27;8.48;;;;;;;31.15;100.00;101426.09;5228267;28;20112;-72
2023/06/11 07:22:44;;;;;;;10.98;8.18;;;;;;;31.23;100.00;101422.69;5229395;28;20064;-71
2023/06/11 07:25:15;;;;;;;13.43;8.73;;;;;;;31.28;100.00;101424.59;5243270;28;20089;-72
2023/06/11 07:27:45;;;;;;;12.35;8.25;;;;;;;31.51;100.00;101431.31;5242982;28;20332;-72
2023/06/11 07:30:16;;;;;;;10.50;8.63;;;;;;;31.67;100.00;101441.94;5243511;28;20078;-71
2023/06/11 07:32:46;;;;;;;10.82;8.73;;;;;;;31.80;100.00;101425.75;5243038;28;20393;-72
2023/06/11 07:35:17;;;;;;;11.65;8.63;;;;;;;31.60;100.00;101426.78;5243179;28;20103;-72
2023/06/11 07:37:48;;;;;;;12.05;8.13;;;;;;;31.66;100.00;101426.44;5211338;28;20427;-72
2023/06/11 07:40:19;;;;;;;11.27;7.78;;;;;;;32.01;100.00;101424.41;5242437;28;20025;-71
2023/06/11 07:42:50;;;;;;;12.68;7.40;;;;;;;32.03;100.00;101424.09;5224822;28;20028;-72
2023/06/11 07:45:20;;;;;;;8.18;7.13;;;;;;;32.19;94.28;101423.63;5222498;28;20373;-72
2023/06/11 07:47:51;;;;;;;12.43;6.93;;;;;;;32.10;99.97;101425.41;5223112;28;20071;-72
2023/06/11 07:50:21;;;;;;;10.85;7.90;;;;;;;31.56;100.00;101429.31;5223520;28;20021;-72
2023/06/11 07:52:52;;;;;;;12.02;8.20;;;;;;;31.67;100.00;101430.03;5223334;28;20553;-72
2023/06/11 07:55:22;;;;;;;11.82;7.28;;;;;;;31.95;99.37;101428.38;5226964;28;20432;-72
2023/06/11 07:57:53;;;;;;;12.30;7.78;;;;;;;31.54;100.00;101431.56;5226183;28;20112;-72
2023/06/11 08:00:24;;;;;;;12.35;6.97;;;;;;;31.61;100.00;101426.50;5227223;28;20561;-72
2023/06/11 08:02:54;;;;;;;7.95;7.15;;;;;;;32.09;100.00;101423.75;5226825;28;20025;-72
2023/06/11 08:05:25;;;;;;;8.48;7.35;;;;;;;32.51;92.51;101416.53;5226159;28;20449;-72
2023/06/11 08:07:55;;;;;;;11.13;6.97;;;;;;;32.65;89.54;101417.44;5225980;28;20036;-72
2023/06/11 08:10:26;;;;;;;7.45;6.75;;;;;;;32.87;95.81;101415.97;5226558;28;20044;-72
2023/06/11 08:12:56;;;;;;;7.97;6.93;;;;;;;33.01;95.69;101414.13;5226607;28;20025;-72
2023/06/11 08:15:26;;;;;;;9.35;7.25;;;;;;;33.03;100.00;101411.03;5226555;28;20021;-72
2023/06/11 08:17:57;;;;;;;8.48;6.63;;;;;;;33.31;88.45;101420.28;5226318;28;20025;-72
2023/06/11 08:20:27;;;;;;;10.95;7.20;;;;;;;32.80;96.64;101410.00;5229100;28;20044;-72
2023/06/11 08:22:58;;;;;;;15.63;7.40;;;;;;;33.20;94.89;101420.47;5241626;28;20040;-72
2023/06/11 08:25:28;;;;;;;9.82;7.50;;;;;;;33.48;92.43;101413.00;5246102;28;20032;-72
2023/06/11 08:27:59;;;;;;;8.48;6.95;;;;;;;33.58;88.92;101413.94;5245995;28;20055;-72
2023/06/11 08:30:29;;;;;;;7.55;6.78;;;;;;;33.31;89.08;101414.72;5246447;28;20504;-72
2023/06/11 08:33:00;;;;;;;11.43;7.05;;;;;;;33.18;89.88;101410.75;5246233;28;20482;-72
2023/06/11 08:35:30;;;;;;;10.68;7.38;;;;;;;33.37;83.73;101405.13;5227939;28;20498;-72
2023/06/11 08:38:00;;;;;;;11.45;6.80;;;;;;;33.49;85.89;101409.13;5245697;28;20051;-72
2023/06/11 08:40:38;;;;;;;8.00;6.43;;;;;;;33.79;94.85;101406.03;5246045;28;20651;-72
2023/06/11 08:43:09;;;;;;;7.70;6.32;;;;;;;33.62;82.61;101404.69;5234021;28;20062;-72
2023/06/11 08:45:39;;;;;;;7.70;6.90;;;;;;;33.53;86.62;101402.91;5229540;28;20028;-73
2023/06/11 08:48:11;;;;;;;8.60;6.40;;;;;;;33.59;82.93;101398.91;5226822;28;20025;-72
2023/06/11 08:50:43;;;;;;;9.18;7.18;;;;;;;33.62;83.95;101392.72;5238104;28;20035;-72
2023/06/11 08:53:13;;;;;;;8.68;7.05;;;;;;;33.74;87.38;101398.63;5235977;28;20032;-72
2023/06/11 08:55:45;;;;;;;8.48;6.70;;;;;;;33.48;88.24;101399.09;5235529;28;20035;-72
2023/06/11 08:58:23;;;;;;;10.07;8.07;;;;;;;33.05;100.00;101398.50;5225210;28;20422;-72
2023/06/11 09:00:53;;;;;;;7.80;7.03;;;;;;;32.84;100.00;101394.38;5225500;28;20024;-72
2023/06/11 09:03:24;;;;;;;11.90;7.35;;;;;;;33.21;95.95;101388.75;5225635;28;20035;-73
2023/06/11 09:05:54;;;;;;;9.38;6.93;;;;;;;33.26;91.07;101382.25;5224910;28;20227;-72
2023/06/11 09:08:25;;;;;;;7.07;6.18;;;;;;;33.39;87.95;101387.03;5227676;28;20049;-72
2023/06/11 09:10:55;;;;;;;7.05;6.43;;;;;;;33.15;90.14;101383.59;5226234;28;20075;-72
2023/06/11 09:13:27;;;;;;;7.95;6.63;;;;;;;33.30;87.43;101390.81;5226257;28;20053;-72
2023/06/11 09:15:58;;;;;;;9.25;6.30;;;;;;;33.49;84.54;101384.09;5225268;28;20079;-72
2023/06/11 09:18:28;;;;;;;10.55;6.78;;;;;;;33.71;83.52;101390.88;5230262;28;20033;-72
2023/06/11 09:21:00;;;;;;;8.07;6.70;;;;;;;33.37;88.28;101380.94;5229029;28;20443;-72
2023/06/11 09:23:32;;;;;;;9.48;7.20;;;;;;;33.06;89.97;101377.91;5234704;28;20094;-73
2023/06/11 09:26:03;;;;;;;8.80;6.97;;;;;;;33.05;93.15;101384.59;5237346;28;20054;-73
2023/06/11 09:28:35;;;;;;;10.20;6.70;;;;;;;33.45;86.80;101388.63;5224693;28;20095;-73
2023/06/11 09:31:05;;;;;;;9.73;6.10;;;;;;;33.79;82.10;101383.75;5240522;28;20055;-72
2023/06/11 09:33:36;;;;;;;9.40;6.80;;;;;;;34.11;82.87;101389.25;5244685;28;20020;-72
2023/06/11 09:36:06;;;;;;;10.45;7.32;;;;;;;34.46;79.79;101382.06;5231401;28;20020;-72
2023/06/11 09:38:37;;;;;;;7.15;6.45;;;;;;;34.47;82.43;101394.03;5244217;28;20024;-72
2023/06/11 09:41:08;;;;;;;9.40;6.75;;;;;;;34.01;89.20;101395.03;5244745;28;20028;-73
2023/06/11 09:43:39;;;;;;;9.43;6.68;;;;;;;33.49;90.76;101392.44;5244927;28;20028;-72
2023/06/11 09:46:10;;;;;;;7.13;6.30;;;;;;;33.31;81.44;101389.69;5226052;28;20036;-72
2023/06/11 09:48:41;;;;;;;6.68;5.80;;;;;;;33.43;94.49;101390.03;5244937;28;20040;-72
2023/06/11 09:51:12;;;;;;;7.72;6.10;;;;;;;33.80;83.61;101391.81;5236778;28;20029;-72
2023/06/11 09:53:44;;;;;;;13.07;6.38;;;;;;;33.77;80.01;101389.66;5238529;28;20095;-72
2023/06/11 09:56:15;;;;;;;7.18;5.90;;;;;;;33.82;81.49;101391.50;5234446;28;20078;-73
2023/06/11 09:58:48;;;;;;;7.25;6.53;;;;;;;34.00;83.89;101394.19;5240184;28;20024;-72
2023/06/11 10:01:19;;;;;;;7.93;6.82;;;;;;;34.20;78.71;101381.78;5244507;28;20443;-73
2023/06/11 10:03:49;;;;;;;9.25;6.18;;;;;;;34.44;76.36;101383.47;5240308;28;20063;-72
2023/06/11 10:06:25;;;;;;;8.98;6.10;;;;;;;34.56;69.03;101388.53;5235627;28;20032;-72
2023/06/11 10:08:58;;;;;;;7.97;6.40;;;;;;;34.30;72.84;101389.09;5237711;28;20423;-73
2023/06/11 10:11:38;;;;;;;8.65;6.05;;;;;;;34.42;72.55;101385.75;5238242;28;20035;-73
2023/06/11 10:14:12;;;;;;;7.05;6.13;;;;;;;34.44;74.44;101378.75;5244231;28;20046;-72
2023/06/11 10:17:02;;;;;;;10.77;5.80;;;;;;;34.56;76.59;101383.78;5229262;28;20025;-73
2023/06/11 10:19:36;;;;;;;9.30;5.75;;;;;;;34.60;68.40;101379.22;5243018;28;20020;-73
2023/06/11 10:22:06;;;;;;;6.85;5.57;;;;;;;34.42;64.39;101383.78;5235531;28;20029;-73
2023/06/11 10:24:37;;;;;;;11.88;6.03;;;;;;;34.01;66.35;101378.31;5228753;28;20036;-73
2023/06/11 10:27:10;;;;;;;7.18;6.25;;;;;;;33.68;83.10;101383.16;5241904;28;20016;-72
2023/06/11 10:30:00;;;;;;;9.33;6.50;;;;;;;33.61;88.88;101378.00;5239427;28;20024;-73
2023/06/11 10:32:30;;;;;;;11.20;5.50;;;;;;;33.58;70.10;101380.56;5224276;28;20279;-72
2023/06/11 10:35:04;;;;;;;9.05;6.85;;;;;;;33.27;72.71;101375.56;5230703;28;20025;-73
2023/06/11 10:37:37;;;;;;;7.30;5.65;;;;;;;33.32;83.37;101380.22;5241675;28;20116;-73
2023/06/11 10:40:09;;;;;;;8.90;6.95;;;;;;;32.70;96.74;101374.88;5232279;28;20107;-73
2023/06/11 10:42:42;;;;;;;9.75;6.20;;;;;;;32.96;93.07;101375.28;5232686;28;20573;-73
2023/06/11 10:45:13;;;;;;;7.65;6.03;;;;;;;33.09;99.78;101370.91;5236490;28;20074;-72
2023/06/11 10:47:47;;;;;;;9.52;5.70;;;;;;;33.24;80.10;101376.19;5237395;28;20107;-72
2023/06/11 10:50:35;;;;;;;6.82;5.90;;;;;;;33.35;80.13;101374.06;5233072;28;20021;-73
2023/06/11 10:53:34;;;;;;;7.15;6.00;;;;;;;33.39;75.27;101373.13;5236742;28;20402;-72
2023/06/11 10:56:07;;;;;;;6.10;5.20;;;;;;;33.51;75.46;101378.22;5229349;28;20036;-74
2023/06/11 10:58:38;;;;;;;5.88;5.28;;;;;;;33.32;76.59;101372.69;5238635;28;20028;-73
2023/06/11 11:01:08;;;;;;;7.65;5.63;;;;;;;33.44;76.31;101370.28;5236961;28;20039;-73
2023/06/11 11:03:40;;;;;;;7.28;5.50;;;;;;;33.47;75.00;101374.38;5232422;28;20028;-73
2023/06/11 11:06:11;;;;;;;9.18;6.03;;;;;;;33.59;70.14;101368.31;5234222;28;20021;-72
2023/06/11 11:08:41;;;;;;;6.50;5.82;;;;;;;33.72;77.93;101371.09;5239266;28;20023;-73
2023/06/11 11:11:12;;;;;;;11.75;5.22;;;;;;;33.71;92.42;101365.84;5239944;28;20024;-73
2023/06/11 11:13:42;;;;;;;8.80;5.40;;;;;;;33.79;76.07;101379.06;5234170;28;20029;-73
2023/06/11 11:16:13;;;;;;;7.82;5.40;;;;;;;33.65;76.76;101367.91;5238613;28;20013;-72
2023/06/11 11:18:43;;;;;;;5.65;5.15;;;;;;;33.82;72.93;101366.47;5234227;28;20048;-73
2023/06/11 11:21:15;;;;;;;5.95;5.30;;;;;;;33.54;78.55;101368.41;5239335;28;20452;-74
2023/06/11 11:23:48;;;;;;;7.65;5.18;;;;;;;33.64;83.90;101366.28;5239366;28;20024;-72
2023/06/11 11:26:18;;;;;;;8.45;5.10;;;;;;;32.95;72.95;101374.47;5236456;28;20097;-73
2023/06/11 11:28:49;;;;;;;6.38;5.00;;;;;;;32.63;78.54;101360.53;5242197;28;20017;-73
2023/06/11 11:31:21;;;;;;;13.18;5.50;;;;;;;32.85;77.62;101357.13;5245731;28;20074;-73
2023/06/11 11:33:51;;;;;;;9.95;5.05;;;;;;;32.78;85.75;101357.50;5245411;28;20024;-73